Time;durP1;ratioP1;P1;durP2;ratioP2;P2;SDS_P1;SDS_P2;PMS_P1;PMS_P2;Temp;Humidity;BMP_temperature;BMP_pressure;BME280_temperature;BME280_humidity;BME280_pressure;Samples;Min_cycle;Max_cycle;Signal;HPM_P1;HPM_P2
2023/09/08 00:00:46;;;;;;;;;;;;;;;24.33;nan;102373.94;5022572;28;19964;-85
2023/09/08 00:03:12;;;;;;;;;;;;;;;24.28;nan;102374.00;5017042;28;19926;-86
2023/09/08 00:05:37;;;;;;;;;;;;;;;24.21;nan;102368.06;5021770;28;19924;-85
2023/09/08 00:08:02;;;;;;;;;;;;;;;24.16;nan;102373.66;5019700;28;19929;-86
2023/09/08 00:10:28;;;;;;;;;;;;;;;24.11;nan;102382.78;5017908;28;19917;-86
2023/09/08 00:12:53;;;;;;;;;;;;;;;24.10;nan;102383.09;5019837;28;20345;-86
2023/09/08 00:15:18;;;;;;;;;;;;;;;24.06;nan;102373.84;5017931;28;20343;-86
2023/09/08 00:17:47;;;;;;;;;;;;;;;24.05;nan;102372.19;5017176;28;20316;-86
2023/09/08 00:20:13;;;;;;;;;;;;;;;24.03;nan;102371.69;5016929;28;20016;-86
2023/09/08 00:22:38;;;;;;;;;;;;;;;23.96;nan;102368.53;5018268;28;20338;-86
2023/09/08 00:25:04;;;;;;;;;;;;;;;23.88;nan;102370.03;5015771;28;19999;-86
2023/09/08 00:27:30;;;;;;;;;;;;;;;23.84;nan;102368.16;5018561;28;20404;-86
2023/09/08 00:29:55;;;;;;;;;;;;;;;23.78;nan;102357.31;5024259;28;19921;-86
2023/09/08 00:32:20;;;;;;;;;;;;;;;23.71;nan;102367.03;5018830;28;20333;-87
2023/09/08 00:34:46;;;;;;;;;;;;;;;23.65;nan;102358.06;5017522;28;19921;-86
2023/09/08 00:37:11;;;;;;;;;;;;;;;23.62;nan;102360.59;5029616;28;20368;-86
2023/09/08 00:39:37;;;;;;;;;;;;;;;23.59;nan;102355.72;5020012;28;20320;-86
2023/09/08 00:42:02;;;;;;;;;;;;;;;23.55;nan;102355.47;5017898;28;19917;-87
2023/09/08 00:44:28;;;;;;;;;;;;;;;23.51;nan;102357.16;5021007;28;19924;-86
2023/09/08 00:46:53;;;;;;;;;;;;;;;23.48;nan;102357.75;5019397;28;19948;-86
2023/09/08 00:49:18;;;;;;;;;;;;;;;23.42;nan;102354.28;5018845;28;19971;-86
2023/09/08 00:51:44;;;;;;;;;;;;;;;23.39;nan;102359.53;5021221;28;20019;-86
2023/09/08 00:54:09;;;;;;;;;;;;;;;23.31;nan;102354.72;5013069;28;20425;-86
2023/09/08 00:56:37;;;;;;;;;;;;;;;23.27;nan;102351.75;5016454;28;20405;-86
2023/09/08 00:59:02;;;;;;;;;;;;;;;23.28;nan;102358.03;5018108;28;19939;-86
2023/09/08 01:01:28;;;;;;;;;;;;;;;23.25;nan;102353.97;5017745;28;20374;-86
2023/09/08 01:03:53;;;;;;;;;;;;;;;23.22;nan;102354.56;5014066;28;19936;-85
2023/09/08 01:06:18;;;;;;;;;;;;;;;23.20;nan;102356.78;5017702;28;19921;-86
2023/09/08 01:08:44;;;;;;;;;;;;;;;23.19;nan;102366.91;5032032;28;19925;-86
2023/09/08 01:11:10;;;;;;;;;;;;;;;23.14;nan;102358.75;5015745;28;19952;-86
2023/09/08 01:13:35;;;;;;;;;;;;;;;23.08;nan;102359.94;5015979;28;19932;-87
2023/09/08 01:16:01;;;;;;;;;;;;;;;23.08;nan;102361.88;5016952;28;19913;-86
2023/09/08 01:18:26;;;;;;;;;;;;;;;23.06;nan;102358.63;5015841;28;19949;-86
2023/09/08 01:21:01;;;;;;;;;;;;;;;23.05;nan;102363.28;5017894;28;20007;-85
2023/09/08 01:23:45;;;;;;;;;;;;;;;23.05;nan;102357.00;5016540;28;20012;-86
2023/09/08 01:26:13;;;;;;;;;;;;;;;22.99;nan;102364.44;5014349;28;19921;-86
2023/09/08 01:28:39;;;;;;;;;;;;;;;22.97;nan;102363.09;5023164;28;19925;-86
2023/09/08 01:31:05;;;;;;;;;;;;;;;22.92;nan;102355.78;5014927;28;19917;-86
2023/09/08 01:33:30;;;;;;;;;;;;;;;22.89;nan;102353.63;5015714;28;19949;-86
2023/09/08 01:35:56;;;;;;;;;;;;;;;22.84;nan;102353.72;5020253;28;19920;-86
2023/09/08 01:38:22;;;;;;;;;;;;;;;22.76;nan;102354.31;5014024;28;19968;-86
2023/09/08 01:40:47;;;;;;;;;;;;;;;22.72;nan;102353.25;5017197;28;19913;-87
2023/09/08 01:43:12;;;;;;;;;;;;;;;22.71;nan;102348.91;5031128;28;19932;-86
2023/09/08 01:45:38;;;;;;;;;;;;;;;22.71;nan;102348.91;5017306;28;19922;-86
2023/09/08 01:48:04;;;;;;;;;;;;;;;22.71;nan;102351.63;5016985;28;19928;-86
2023/09/08 01:50:29;;;;;;;;;;;;;;;22.68;nan;102352.22;5015071;28;20409;-85
2023/09/08 01:52:54;;;;;;;;;;;;;;;22.66;nan;102357.16;5015314;28;20393;-86
2023/09/08 01:55:20;;;;;;;;;;;;;;;22.64;nan;102356.66;5017326;28;19925;-86
2023/09/08 01:57:46;;;;;;;;;;;;;;;22.62;nan;102356.91;5019364;28;19931;-86
2023/09/08 02:00:12;;;;;;;;;;;;;;;22.62;nan;102356.91;5018813;28;20189;-86
2023/09/08 02:02:37;;;;;;;;;;;;;;;22.57;nan;102348.78;5018435;28;19925;-86
2023/09/08 02:05:03;;;;;;;;;;;;;;;22.55;nan;102349.06;5020662;28;19939;-86
2023/09/08 02:07:28;;;;;;;;;;;;;;;22.51;nan;102353.50;5014254;28;19921;-86
2023/09/08 02:09:54;;;;;;;;;;;;;;;22.47;nan;102347.00;5016204;28;20116;-86
2023/09/08 02:12:19;;;;;;;;;;;;;;;22.43;nan;102350.56;5016389;28;19948;-87
2023/09/08 02:14:44;;;;;;;;;;;;;;;22.38;nan;102350.63;5019331;28;19921;-86
2023/09/08 02:17:10;;;;;;;;;;;;;;;22.30;nan;102349.34;5017966;28;19921;-86
2023/09/08 02:19:35;;;;;;;;;;;;;;;22.28;nan;102346.09;5017953;28;20303;-86
2023/09/08 02:22:00;;;;;;;;;;;;;;;22.27;nan;102339.81;5014709;28;20381;-86
2023/09/08 02:24:26;;;;;;;;;;;;;;;22.27;nan;102341.75;5014217;28;19986;-86
2023/09/08 02:26:53;;;;;;;;;;;;;;;22.22;nan;102348.03;5013906;28;19920;-85
2023/09/08 02:29:18;;;;;;;;;;;;;;;22.16;nan;102332.81;5015657;28;19975;-85
2023/09/08 02:31:44;;;;;;;;;;;;;;;22.13;nan;102338.06;5017690;28;19918;-86
2023/09/08 02:34:11;;;;;;;;;;;;;;;22.13;nan;102338.06;5020544;28;19921;-86
2023/09/08 02:36:36;;;;;;;;;;;;;;;22.09;nan;102339.72;5014444;28;20442;-86
2023/09/08 02:39:01;;;;;;;;;;;;;;;22.07;nan;102339.19;5014769;28;19921;-86
2023/09/08 02:41:27;;;;;;;;;;;;;;;22.02;nan;102332.66;5016505;28;20350;-86
2023/09/08 02:43:52;;;;;;;;;;;;;;;22.02;nan;102338.09;5015479;28;19917;-85
2023/09/08 02:46:17;;;;;;;;;;;;;;;21.98;nan;102341.69;5014072;28;19922;-86
2023/09/08 02:48:43;;;;;;;;;;;;;;;21.96;nan;102338.44;5015370;28;19921;-86
2023/09/08 02:51:08;;;;;;;;;;;;;;;21.92;nan;102331.94;5016673;28;19922;-86
2023/09/08 02:53:33;;;;;;;;;;;;;;;21.88;nan;102331.66;5013763;28;19964;-86
2023/09/08 02:55:59;;;;;;;;;;;;;;;21.84;nan;102330.63;5018781;28;19964;-86
2023/09/08 02:58:25;;;;;;;;;;;;;;;21.80;nan;102326.03;5018057;28;19952;-86
2023/09/08 03:00:52;;;;;;;;;;;;;;;21.77;nan;102327.41;5019126;28;20160;-86
2023/09/08 03:03:20;;;;;;;;;;;;;;;21.75;nan;102315.97;5014203;28;19924;-86
2023/09/08 03:05:45;;;;;;;;;;;;;;;21.73;nan;102323.63;5015440;28;20384;-85
2023/09/08 03:08:10;;;;;;;;;;;;;;;21.68;nan;102323.66;5017360;28;19929;-86
2023/09/08 03:10:36;;;;;;;;;;;;;;;21.65;nan;102318.78;5018483;28;19917;-86
2023/09/08 03:13:01;;;;;;;;;;;;;;;21.60;nan;102319.63;5014392;28;19921;-85
2023/09/08 03:15:28;;;;;;;;;;;;;;;21.55;nan;102316.13;5015874;28;19971;-85
2023/09/08 03:17:58;;;;;;;;;;;;;;;21.53;nan;102318.31;5020583;28;20151;-86
2023/09/08 03:20:23;;;;;;;;;;;;;;;21.53;nan;102312.84;5013588;28;20059;-86
2023/09/08 03:22:49;;;;;;;;;;;;;;;21.53;nan;102321.03;5018062;28;19991;-85
2023/09/08 03:25:14;;;;;;;;;;;;;;;21.52;nan;102316.69;5015958;28;20536;-86
2023/09/08 03:27:40;;;;;;;;;;;;;;;21.48;nan;102315.63;5018927;28;19967;-86
2023/09/08 03:30:05;;;;;;;;;;;;;;;21.47;nan;102317.53;5015636;28;20420;-86
2023/09/08 03:32:31;;;;;;;;;;;;;;;21.43;nan;102316.47;5011369;28;19924;-86
2023/09/08 03:34:56;;;;;;;;;;;;;;;21.41;nan;102316.75;5014816;28;19917;-85
2023/09/08 03:37:22;;;;;;;;;;;;;;;21.39;nan;102313.50;5015784;28;19921;-86
2023/09/08 03:39:47;;;;;;;;;;;;;;;21.38;nan;102316.53;5020433;28;20011;-86
2023/09/08 03:42:13;;;;;;;;;;;;;;;21.37;nan;102312.97;5020428;28;19920;-85
2023/09/08 03:44:38;;;;;;;;;;;;;;;21.35;nan;102311.59;5018081;28;19944;-86
2023/09/08 03:47:03;;;;;;;;;;;;;;;21.33;nan;102311.91;5015798;28;19995;-86
2023/09/08 03:49:29;;;;;;;;;;;;;;;21.31;nan;102316.81;5018352;28;19922;-86
2023/09/08 03:51:54;;;;;;;;;;;;;;;21.29;nan;102316.28;5017461;28;19921;-85
2023/09/08 03:54:19;;;;;;;;;;;;;;;21.26;nan;102314.13;5017885;28;19996;-86
2023/09/08 03:56:44;;;;;;;;;;;;;;;21.25;nan;102317.16;5018949;28;19925;-85
2023/09/08 03:59:10;;;;;;;;;;;;;;;21.22;nan;102312.22;5020211;28;20340;-86
2023/09/08 04:01:35;;;;;;;;;;;;;;;21.18;nan;102317.41;5017036;28;19949;-86
2023/09/08 04:04:01;;;;;;;;;;;;;;;21.17;nan;102317.69;5018951;28;19932;-86
2023/09/08 04:06:28;;;;;;;;;;;;;;;21.16;nan;102324.25;5017940;28;19930;-86
2023/09/08 04:08:53;;;;;;;;;;;;;;;21.14;nan;102316.34;5017514;28;19921;-86
2023/09/08 04:11:18;;;;;;;;;;;;;;;21.10;nan;102318.00;5016039;28;20313;-86
2023/09/08 04:13:44;;;;;;;;;;;;;;;21.07;nan;102321.31;5017558;28;19925;-86
2023/09/08 04:16:10;;;;;;;;;;;;;;;21.06;nan;102320.50;5015471;28;19929;-86
2023/09/08 04:18:35;;;;;;;;;;;;;;;21.03;nan;102320.25;5017386;28;19925;-86
2023/09/08 04:21:00;;;;;;;;;;;;;;;20.99;nan;102313.69;5015768;28;19932;-86
2023/09/08 04:23:25;;;;;;;;;;;;;;;20.99;nan;102313.69;5016123;28;19921;-86
2023/09/08 04:25:51;;;;;;;;;;;;;;;20.98;nan;102314.78;5018435;28;19928;-86
2023/09/08 04:28:16;;;;;;;;;;;;;;;20.95;nan;102310.72;5014953;28;20030;-86
2023/09/08 04:30:41;;;;;;;;;;;;;;;20.94;nan;102322.72;5018619;28;19928;-86
2023/09/08 04:33:07;;;;;;;;;;;;;;;20.91;nan;102317.00;5016798;28;19918;-86
2023/09/08 04:35:32;;;;;;;;;;;;;;;20.90;nan;102320.84;5016744;28;19951;-86
2023/09/08 04:37:57;;;;;;;;;;;;;;;20.88;nan;102318.41;5018061;28;19924;-86
2023/09/08 04:40:23;;;;;;;;;;;;;;;20.85;nan;102323.59;5019599;28;19932;-86
2023/09/08 04:42:48;;;;;;;;;;;;;;;20.81;nan;102324.13;5019004;28;19917;-86
2023/09/08 04:45:13;;;;;;;;;;;;;;;20.78;nan;102319.25;5015594;28;19952;-86
2023/09/08 04:47:39;;;;;;;;;;;;;;;20.73;nan;102316.53;5018611;28;19921;-86
2023/09/08 04:50:04;;;;;;;;;;;;;;;20.69;nan;102320.91;5019924;28;19921;-85
2023/09/08 04:52:30;;;;;;;;;;;;;;;20.66;nan;102318.75;5019831;28;19940;-86
2023/09/08 04:54:55;;;;;;;;;;;;;;;20.65;nan;102313.59;5025912;28;20033;-86
2023/09/08 04:57:20;;;;;;;;;;;;;;;20.63;nan;102313.03;5024853;28;20086;-84
2023/09/08 04:59:46;;;;;;;;;;;;;;;20.63;nan;102318.47;5018122;28;19964;-86
2023/09/08 05:02:11;;;;;;;;;;;;;;;20.63;nan;102318.47;5013685;28;20043;-86
2023/09/08 05:04:36;;;;;;;;;;;;;;;20.65;nan;102322.56;5015135;28;19918;-86
2023/09/08 05:07:02;;;;;;;;;;;;;;;20.67;nan;102314.13;5019946;28;19921;-86
2023/09/08 05:09:27;;;;;;;;;;;;;;;20.70;nan;102311.66;5017411;28;19921;-86
2023/09/08 05:11:52;;;;;;;;;;;;;;;20.74;nan;102312.72;5017415;28;20410;-85
2023/09/08 05:14:18;;;;;;;;;;;;;;;20.78;nan;102312.97;5016342;28;19929;-85
2023/09/08 05:16:47;;;;;;;;;;;;;;;20.85;nan;102320.88;5018834;28;20385;-86
2023/09/08 05:19:13;;;;;;;;;;;;;;;20.90;nan;102321.66;5016082;28;19925;-85
2023/09/08 05:21:41;;;;;;;;;;;;;;;20.97;nan;102321.34;5017962;28;19948;-86
2023/09/08 05:24:06;;;;;;;;;;;;;;;21.06;nan;102320.50;5015642;28;19928;-85
2023/09/08 05:26:32;;;;;;;;;;;;;;;21.12;nan;102313.91;5016336;28;19929;-86
2023/09/08 05:28:57;;;;;;;;;;;;;;;21.21;nan;102314.13;5022355;28;19952;-86
2023/09/08 05:31:22;;;;;;;;;;;;;;;21.27;nan;102310.31;5014742;28;20435;-86
2023/09/08 05:33:48;;;;;;;;;;;;;;;21.35;nan;102312.44;5017541;28;20014;-86
2023/09/08 05:36:13;;;;;;;;;;;;;;;21.43;nan;102313.75;5016137;28;19925;-86
2023/09/08 05:38:38;;;;;;;;;;;;;;;21.53;nan;102307.41;5017890;28;20004;-86
2023/09/08 05:41:04;;;;;;;;;;;;;;;21.64;nan;102306.22;5016328;28;20365;-86
2023/09/08 05:43:29;;;;;;;;;;;;;;;21.74;nan;102303.44;5017705;28;20381;-85
2023/09/08 05:45:54;;;;;;;;;;;;;;;21.84;nan;102306.06;5016113;28;20385;-86
2023/09/08 05:48:22;;;;;;;;;;;;;;;21.93;nan;102304.34;5014213;28;20321;-86
2023/09/08 05:50:47;;;;;;;;;;;;;;;22.02;nan;102305.34;5019034;28;19918;-86
2023/09/08 05:53:12;;;;;;;;;;;;;;;22.14;nan;102301.47;5014387;28;19925;-86
2023/09/08 05:55:38;;;;;;;;;;;;;;;22.25;nan;102301.03;5014019;28;19933;-86
2023/09/08 05:58:03;;;;;;;;;;;;;;;22.38;nan;102301.47;5016114;28;19917;-85
2023/09/08 06:00:28;;;;;;;;;;;;;;;22.52;nan;102310.59;5014548;28;19921;-86
2023/09/08 06:02:54;;;;;;;;;;;;;;;22.64;nan;102297.34;5017623;28;19924;-86
2023/09/08 06:05:19;;;;;;;;;;;;;;;22.78;nan;102300.16;5016917;28;19918;-86
2023/09/08 06:07:44;;;;;;;;;;;;;;;22.92;nan;102301.13;5014686;28;20380;-85
2023/09/08 06:10:10;;;;;;;;;;;;;;;23.07;nan;102300.09;5016184;28;20914;-85
2023/09/08 06:12:37;;;;;;;;;;;;;;;23.20;nan;102294.72;5003739;28;19949;-86
2023/09/08 06:15:03;;;;;;;;;;;;;;;23.35;nan;102288.22;5011592;28;19947;-87
2023/09/08 06:17:28;;;;;;;;;;;;;;;23.50;nan;102287.13;5014605;28;19925;-86
2023/09/08 06:19:54;;;;;;;;;;;;;;;23.63;nan;102289.16;5016197;28;19917;-86
2023/09/08 06:22:19;;;;;;;;;;;;;;;23.79;nan;102290.53;5013313;28;19923;-86
2023/09/08 06:24:44;;;;;;;;;;;;;;;23.95;nan;102291.06;5017434;28;19921;-86
2023/09/08 06:27:11;;;;;;;;;;;;;;;24.11;nan;102294.34;5011947;28;19936;-86
2023/09/08 06:29:36;;;;;;;;;;;;;;;24.24;nan;102299.03;5017501;28;19917;-86
2023/09/08 06:32:02;;;;;;;;;;;;;;;24.39;nan;102286.97;5016908;28;20408;-86
2023/09/08 06:34:27;;;;;;;;;;;;;;;24.54;nan;102285.84;5017636;28;19918;-86
2023/09/08 06:36:52;;;;;;;;;;;;;;;24.70;nan;102290.72;5018644;28;20434;-85
2023/09/08 06:39:18;;;;;;;;;;;;;;;24.87;nan;102290.09;5025624;28;19924;-86
2023/09/08 06:41:43;;;;;;;;;;;;;;;25.04;nan;102292.22;5016780;28;19925;-86
2023/09/08 06:44:08;;;;;;;;;;;;;;;25.20;nan;102289.94;5013518;28;19940;-86
2023/09/08 06:46:33;;;;;;;;;;;;;;;25.37;nan;102292.00;5020227;28;20340;-86
2023/09/08 06:48:59;;;;;;;;;;;;;;;25.53;nan;102285.84;5016078;28;19927;-86
2023/09/08 06:51:24;;;;;;;;;;;;;;;25.71;nan;102289.56;5015843;28;20492;-86
2023/09/08 06:53:54;;;;;;;;;;;;;;;25.87;nan;102287.22;5012534;28;19917;-86
2023/09/08 06:56:19;;;;;;;;;;;;;;;26.02;nan;102286.00;5012994;28;19918;-86
2023/09/08 06:58:45;;;;;;;;;;;;;;;26.19;nan;102288.81;5014016;28;19924;-85
2023/09/08 07:01:10;;;;;;;;;;;;;;;26.36;nan;102290.84;5014248;28;19944;-86
2023/09/08 07:03:36;;;;;;;;;;;;;;;26.54;nan;102289.78;5014851;28;19928;-86
2023/09/08 07:06:02;;;;;;;;;;;;;;;26.72;nan;102291.44;5013297;28;19917;-86
2023/09/08 07:08:27;;;;;;;;;;;;;;;26.88;nan;102293.75;5014479;28;19932;-85
2023/09/08 07:10:53;;;;;;;;;;;;;;;27.04;nan;102294.94;5016036;28;20545;-86
2023/09/08 07:13:19;;;;;;;;;;;;;;;27.18;nan;102290.09;5017065;28;20088;-86
2023/09/08 07:15:44;;;;;;;;;;;;;;;27.33;nan;102292.34;5018177;28;20305;-86
2023/09/08 07:18:09;;;;;;;;;;;;;;;27.48;nan;102293.81;5014749;28;20115;-86
2023/09/08 07:20:35;;;;;;;;;;;;;;;27.67;nan;102290.72;5018384;28;20305;-86
2023/09/08 07:23:00;;;;;;;;;;;;;;;27.83;nan;102291.81;5017232;28;20067;-86
2023/09/08 07:25:25;;;;;;;;;;;;;;;28.00;nan;102294.50;5016506;28;19921;-86
2023/09/08 07:27:53;;;;;;;;;;;;;;;28.16;nan;102292.00;5016586;28;19963;-86
2023/09/08 07:30:18;;;;;;;;;;;;;;;28.31;nan;102296.19;5013763;28;19925;-86
2023/09/08 07:32:44;;;;;;;;;;;;;;;28.42;nan;102294.69;5018915;28;19928;-85
2023/09/08 07:35:13;;;;;;;;;;;;;;;28.56;nan;102300.78;5014987;28;20434;-86
2023/09/08 07:37:39;;;;;;;;;;;;;;;28.69;nan;102298.09;5016611;28;19953;-86
2023/09/08 07:40:05;;;;;;;;;;;;;;;28.83;nan;102288.44;5017098;28;20447;-86
2023/09/08 07:42:30;;;;;;;;;;;;;;;28.98;nan;102295.34;5017461;28;19952;-86
2023/09/08 07:44:55;;;;;;;;;;;;;;;29.17;nan;102292.13;5020306;28;19954;-86
2023/09/08 07:47:21;;;;;;;;;;;;;;;29.34;nan;102294.72;5019230;28;20411;-86
2023/09/08 07:49:47;;;;;;;;;;;;;;;29.50;nan;102289.41;5020320;28;20004;-85
2023/09/08 07:52:12;;;;;;;;;;;;;;;29.64;nan;102297.41;5016586;28;19928;-86
2023/09/08 07:54:38;;;;;;;;;;;;;;;29.73;nan;102293.38;5019395;28;19925;-86
2023/09/08 07:57:03;;;;;;;;;;;;;;;29.81;nan;102294.47;5018113;28;19921;-87
2023/09/08 07:59:28;;;;;;;;;;;;;;;29.92;nan;102292.06;5030254;28;19917;-87
2023/09/08 08:01:54;;;;;;;;;;;;;;;30.01;nan;102293.56;5017115;28;20384;-87
2023/09/08 08:04:19;;;;;;;;;;;;;;;30.15;nan;102296.00;5019856;28;19918;-87
2023/09/08 08:06:44;;;;;;;;;;;;;;;30.33;nan;102302.13;5018840;28;20266;-87
2023/09/08 08:09:10;;;;;;;;;;;;;;;30.54;nan;102304.81;5016510;28;19933;-87
2023/09/08 08:11:35;;;;;;;;;;;;;;;30.69;nan;102298.56;5019302;28;19921;-87
2023/09/08 08:14:01;;;;;;;;;;;;;;;30.88;nan;102306.25;5013917;28;19956;-88
2023/09/08 08:16:26;;;;;;;;;;;;;;;31.06;nan;102304.03;5017445;28;19976;-86
2023/09/08 08:18:52;;;;;;;;;;;;;;;31.24;nan;102303.44;5014586;28;20421;-86
2023/09/08 08:21:17;;;;;;;;;;;;;;;31.31;nan;102304.78;5017903;28;19917;-87
2023/09/08 08:23:42;;;;;;;;;;;;;;;31.39;nan;102301.06;5014390;28;20579;-88
2023/09/08 08:26:08;;;;;;;;;;;;;;;31.51;nan;102296.28;5015285;28;19921;-87
2023/09/08 08:28:34;;;;;;;;;;;;;;;31.61;nan;102294.97;5014917;28;20389;-87
2023/09/08 08:30:59;;;;;;;;;;;;;;;31.75;nan;102294.56;5020971;28;19988;-86
2023/09/08 08:33:25;;;;;;;;;;;;;;;31.89;nan;102292.16;5016926;28;19933;-86
2023/09/08 08:35:52;;;;;;;;;;;;;;;31.99;nan;102294.41;5017202;28;19917;-87
2023/09/08 08:38:17;;;;;;;;;;;;;;;32.10;nan;102292.69;5017408;28;19921;-87
2023/09/08 08:40:42;;;;;;;;;;;;;;;32.17;nan;102281.78;5016229;28;19918;-84
2023/09/08 08:43:08;;;;;;;;;;;;;;;32.30;nan;102287.25;5015612;28;19921;-87
2023/09/08 08:45:33;;;;;;;;;;;;;;;32.50;nan;102288.09;5018896;28;20377;-87
2023/09/08 08:47:59;;;;;;;;;;;;;;;32.60;nan;102288.38;5015231;28;19948;-86
2023/09/08 08:50:25;;;;;;;;;;;;;;;32.68;nan;102287.38;5013806;28;19921;-87
2023/09/08 08:52:52;;;;;;;;;;;;;;;32.75;nan;102278.41;5017056;28;19917;-86
2023/09/08 08:55:18;;;;;;;;;;;;;;;32.87;nan;102274.72;5013585;28;20006;-87
2023/09/08 08:57:44;;;;;;;;;;;;;;;33.01;nan;102277.78;5014547;28;19917;-87
2023/09/08 09:00:15;;;;;;;;;;;;;;;33.10;nan;102272.03;5013558;28;19963;-88
2023/09/08 09:02:41;;;;;;;;;;;;;;;33.22;nan;102264.34;5016648;28;20011;-86
2023/09/08 09:05:13;;;;;;;;;;;;;;;33.32;nan;102263.75;5014180;28;20660;-84
2023/09/08 09:07:42;;;;;;;;;;;;;;;33.39;nan;102265.06;5014842;28;20365;-86
2023/09/08 09:10:07;;;;;;;;;;;;;;;33.43;nan;102263.97;5013598;28;20023;-87
2023/09/08 09:12:33;;;;;;;;;;;;;;;33.58;nan;102256.72;5017341;28;20004;-86
2023/09/08 09:14:59;;;;;;;;;;;;;;;33.75;nan;102260.94;5013838;28;20012;-88
2023/09/08 09:17:28;;;;;;;;;;;;;;;33.93;nan;102250.97;5013200;28;19922;-87
2023/09/08 09:20:13;;;;;;;;;;;;;;;34.13;nan;102260.06;5013635;28;19928;-86
2023/09/08 09:22:38;;;;;;;;;;;;;;;34.23;nan;102251.06;5013545;28;20016;-83
2023/09/08 09:25:07;;;;;;;;;;;;;;;34.29;nan;102254.31;5031250;28;20023;-85
2023/09/08 09:27:32;;;;;;;;;;;;;;;34.39;nan;102250.94;5017588;28;19925;-86
2023/09/08 09:29:58;;;;;;;;;;;;;;;34.47;nan;102245.09;5013378;28;19933;-86
2023/09/08 09:32:24;;;;;;;;;;;;;;;34.63;nan;102244.91;5012701;28;19924;-86
2023/09/08 09:34:50;;;;;;;;;;;;;;;34.76;nan;102243.50;5016343;28;19936;-87
2023/09/08 09:37:16;;;;;;;;;;;;;;;34.87;nan;102240.88;5017255;28;19917;-87
2023/09/08 09:39:41;;;;;;;;;;;;;;;34.75;nan;102249.44;5021514;28;19917;-86
2023/09/08 09:42:06;;;;;;;;;;;;;;;34.67;nan;102237.41;5011107;28;20381;-86
2023/09/08 09:44:32;;;;;;;;;;;;;;;34.75;nan;102235.50;5018099;28;19921;-87
2023/09/08 09:46:57;;;;;;;;;;;;;;;34.80;nan;102240.75;5014077;28;20435;-86
2023/09/08 09:49:26;;;;;;;;;;;;;;;34.92;nan;102242.53;5011633;28;20360;-87
2023/09/08 09:51:53;;;;;;;;;;;;;;;35.10;nan;102237.97;5010919;28;19952;-86
2023/09/08 09:54:18;;;;;;;;;;;;;;;35.28;nan;102238.16;5014724;28;20432;-87
2023/09/08 09:56:44;;;;;;;;;;;;;;;35.43;nan;102239.94;5013449;28;20012;-86
2023/09/08 09:59:10;;;;;;;;;;;;;;;35.56;nan;102238.47;5010579;28;19960;-87
2023/09/08 10:01:37;;;;;;;;;;;;;;;35.70;nan;102230.22;5009273;28;20004;-86
2023/09/08 10:04:03;;;;;;;;;;;;;;;35.83;nan;102224.34;5014276;28;20029;-87
2023/09/08 10:06:31;;;;;;;;;;;;;;;35.93;nan;102227.28;5011672;28;20661;-86
2023/09/08 10:08:58;;;;;;;;;;;;;;;35.88;nan;102227.59;5013853;28;19921;-86
2023/09/08 10:11:27;;;;;;;;;;;;;;;35.84;nan;102220.41;5013675;28;19987;-87
2023/09/08 10:13:55;;;;;;;;;;;;;;;35.81;nan;102226.72;5011554;28;19952;-86
2023/09/08 10:16:20;;;;;;;;;;;;;;;35.75;nan;102223.50;5011182;28;19925;-86
2023/09/08 10:18:47;;;;;;;;;;;;;;;35.81;nan;102227.53;5013935;28;19959;-87
2023/09/08 10:21:13;;;;;;;;;;;;;;;35.95;nan;102221.28;5011354;28;19928;-87
2023/09/08 10:23:43;;;;;;;;;;;;;;;36.08;nan;102222.56;5013872;28;19924;-86
2023/09/08 10:26:14;;;;;;;;;;;;;;;36.15;nan;102225.41;5011159;28;19921;-87
2023/09/08 10:28:39;;;;;;;;;;;;;;;36.16;nan;102213.06;5012005;28;20019;-86
2023/09/08 10:31:05;;;;;;;;;;;;;;;36.16;nan;102224.22;5013847;28;20480;-87
2023/09/08 10:33:31;;;;;;;;;;;;;;;36.21;nan;102207.13;5029047;28;19917;-86
2023/09/08 10:35:57;;;;;;;;;;;;;;;36.40;nan;102213.63;5012825;28;19917;-86
2023/09/08 10:38:26;;;;;;;;;;;;;;;36.56;nan;102203.75;5013771;28;20416;-86
2023/09/08 10:41:10;;;;;;;;;;;;;;;36.80;nan;102205.06;5008137;28;19928;-87
2023/09/08 10:43:37;;;;;;;;;;;;;;;36.97;nan;102200.72;5015368;28;20002;-86
2023/09/08 10:46:08;;;;;;;;;;;;;;;37.11;nan;102203.56;5014502;28;20448;-86
2023/09/08 10:48:40;;;;;;;;;;;;;;;37.22;nan;102204.38;5020659;28;20400;-87
2023/09/08 10:51:05;;;;;;;;;;;;;;;37.26;nan;102206.38;5018035;28;19924;-87
2023/09/08 10:53:30;;;;;;;;;;;;;;;37.30;nan;102204.41;5021626;28;19925;-87
2023/09/08 10:55:56;;;;;;;;;;;;;;;37.32;nan;102205.59;5019659;28;20365;-86
2023/09/08 10:58:44;;;;;;;;;;;;;;;37.36;nan;102208.44;5018748;28;19967;-86
2023/09/08 11:01:13;;;;;;;;;;;;;;;37.41;nan;102208.03;5017568;28;20087;-86
2023/09/08 11:03:38;;;;;;;;;;;;;;;37.43;nan;102203.63;5021929;28;19952;-87
2023/09/08 11:06:04;;;;;;;;;;;;;;;37.41;nan;102194.84;5018987;28;19996;-87
2023/09/08 11:08:30;;;;;;;;;;;;;;;37.48;nan;102194.84;5021019;28;20400;-87
2023/09/08 11:10:56;;;;;;;;;;;;;;;37.53;nan;102202.06;5021759;28;19917;-86
2023/09/08 11:13:21;;;;;;;;;;;;;;;37.61;nan;102197.25;5019799;28;19952;-87
2023/09/08 11:15:46;;;;;;;;;;;;;;;37.65;nan;102193.25;5020229;28;19925;-87
2023/09/08 11:18:12;;;;;;;;;;;;;;;37.77;nan;102195.66;5018056;28;19925;-87
2023/09/08 11:20:37;;;;;;;;;;;;;;;37.80;nan;102194.88;5016652;28;19975;-86
2023/09/08 11:23:04;;;;;;;;;;;;;;;37.81;nan;102187.28;5017521;28;19925;-87
2023/09/08 11:25:30;;;;;;;;;;;;;;;37.83;nan;102182.06;5018345;28;19926;-86
2023/09/08 11:27:57;;;;;;;;;;;;;;;37.72;nan;102170.91;5017920;28;19921;-87
2023/09/08 11:30:22;;;;;;;;;;;;;;;37.58;nan;102175.69;5017194;28;20393;-87
2023/09/08 11:32:47;;;;;;;;;;;;;;;37.45;nan;102178.88;5017909;28;19970;-87
2023/09/08 11:35:13;;;;;;;;;;;;;;;37.51;nan;102168.06;5009217;28;19922;-87
2023/09/08 11:37:39;;;;;;;;;;;;;;;37.69;nan;102170.88;5012581;28;19962;-87
2023/09/08 11:40:12;;;;;;;;;;;;;;;37.95;nan;102170.47;5019543;28;20656;-87
2023/09/08 11:42:44;;;;;;;;;;;;;;;38.10;nan;102157.25;5017882;28;19971;-87
2023/09/08 11:45:13;;;;;;;;;;;;;;;38.24;nan;102167.59;5018513;28;20139;-86
2023/09/08 11:47:39;;;;;;;;;;;;;;;38.33;nan;102160.38;5019822;28;19925;-86
2023/09/08 11:50:05;;;;;;;;;;;;;;;38.43;nan;102164.38;5017137;28;20016;-87
2023/09/08 11:52:30;;;;;;;;;;;;;;;38.46;nan;102162.75;5017423;28;20008;-87
2023/09/08 11:54:56;;;;;;;;;;;;;;;38.37;nan;102154.78;5021012;28;19921;-84
2023/09/08 11:57:21;;;;;;;;;;;;;;;38.31;nan;102167.59;5018693;28;19917;-84
2023/09/08 11:59:48;;;;;;;;;;;;;;;38.38;nan;102161.97;5023060;28;20360;-85
2023/09/08 12:02:13;;;;;;;;;;;;;;;38.51;nan;102157.50;5032412;28;20430;-84
2023/09/08 12:04:39;;;;;;;;;;;;;;;38.47;nan;102156.75;5023988;28;19921;-83
2023/09/08 12:07:04;;;;;;;;;;;;;;;38.55;nan;102147.09;5019800;28;19959;-83
2023/09/08 12:09:29;;;;;;;;;;;;;;;38.70;nan;102147.84;5018171;28;19925;-86
2023/09/08 12:11:54;;;;;;;;;;;;;;;38.71;nan;102145.84;5018708;28;20610;-84
2023/09/08 12:14:20;;;;;;;;;;;;;;;38.82;nan;102138.19;5017047;28;20382;-84
2023/09/08 12:16:46;;;;;;;;;;;;;;;38.92;nan;102143.69;5018304;28;20412;-86
2023/09/08 12:19:33;;;;;;;;;;;;;;;39.08;nan;102142.44;5016518;28;19967;-85
2023/09/08 12:22:02;;;;;;;;;;;;;;;39.14;nan;102137.97;5018464;28;19917;-84
2023/09/08 12:24:46;;;;;;;;;;;;;;;39.17;nan;102134.38;5017727;28;19975;-87
2023/09/08 12:27:12;;;;;;;;;;;;;;;39.12;nan;102131.97;5015252;28;19932;-85
2023/09/08 12:29:37;;;;;;;;;;;;;;;39.13;nan;102139.97;5018677;28;20148;-87
2023/09/08 12:32:02;;;;;;;;;;;;;;;39.25;nan;102133.88;5018360;28;19944;-87
2023/09/08 12:34:28;;;;;;;;;;;;;;;39.40;nan;102116.94;5015547;28;19924;-85
2023/09/08 12:36:55;;;;;;;;;;;;;;;39.54;nan;102122.44;5023400;28;19974;-89
2023/09/08 12:39:20;;;;;;;;;;;;;;;39.63;nan;102122.75;5017514;28;19928;-86
2023/09/08 12:41:45;;;;;;;;;;;;;;;39.61;nan;102119.56;5017376;28;20106;-87
2023/09/08 12:44:11;;;;;;;;;;;;;;;39.64;nan;102117.94;5013609;28;20566;-87
2023/09/08 12:46:36;;;;;;;;;;;;;;;39.69;nan;102109.88;5016355;28;19975;-85
2023/09/08 12:49:01;;;;;;;;;;;;;;;39.82;nan;102101.69;5016873;28;19924;-83
2023/09/08 12:51:27;;;;;;;;;;;;;;;39.96;nan;102106.38;5016487;28;19921;-86